Time;durP1;ratioP1;P1;durP2;ratioP2;P2;SDS_P1;SDS_P2;PMS_P1;PMS_P2;Temp;Humidity;BMP_temperature;BMP_pressure;BME280_temperature;BME280_humidity;BME280_pressure;Samples;Min_cycle;Max_cycle;Signal;HPM_P1;HPM_P2
2022/04/13 00:02:51;;;;;;;13.50;11.13;;;;;;;6.05;100.00;100650.38;4552373;23;10002218;-63
2022/04/13 00:05:17;;;;;;;15.00;11.23;;;;;;;5.77;100.00;100656.19;5031418;28;20037;-63
2022/04/13 00:07:42;;;;;;;14.20;10.65;;;;;;;5.73;100.00;100644.41;5031393;28;20033;-63
2022/04/13 00:10:08;;;;;;;11.00;9.25;;;;;;;6.02;100.00;100652.94;5033055;28;20033;-63
2022/04/13 00:12:34;;;;;;;15.63;9.30;;;;;;;5.34;100.00;100594.72;5050768;28;20033;-63
2022/04/13 00:15:02;;;;;;;13.18;9.88;;;;;;;5.69;100.00;100636.00;5051256;28;20039;-63
2022/04/13 00:17:28;;;;;;;12.02;9.50;;;;;;;6.00;100.00;100594.03;5050990;28;20068;-63
2022/04/13 00:19:53;;;;;;;11.50;9.30;;;;;;;6.06;100.00;100652.09;5033389;28;20064;-64
2022/04/13 00:22:18;;;;;;;10.02;8.70;;;;;;;5.88;100.00;100626.84;5033240;28;20554;-63
2022/04/13 00:24:44;;;;;;;10.90;8.25;;;;;;;5.80;100.00;100603.25;5051038;28;20025;-63
2022/04/13 00:27:09;;;;;;;11.35;9.85;;;;;;;5.56;100.00;100567.88;5032968;28;20033;-63
2022/04/13 00:29:35;;;;;;;12.65;9.65;;;;;;;6.14;100.00;100652.91;5032567;28;20112;-63
2022/04/13 00:32:03;;;;;;;13.65;10.95;;;;;;;5.61;100.00;100549.41;5047347;28;20058;-63
2022/04/13 00:34:28;;;;;;;16.92;11.35;;;;;;;5.99;100.00;100642.81;5030895;28;20026;-63
2022/04/13 00:36:57;;;;;;;17.02;11.18;;;;;;;5.96;100.00;100587.31;5035108;28;20048;-63
2022/04/13 00:39:26;;;;;;;15.05;10.98;;;;;;;6.38;100.00;100636.94;5050897;28;20025;-63
2022/04/13 00:42:05;;;;;;;16.83;12.18;;;;;;;6.06;100.00;100586.47;5050759;28;20457;-63
2022/04/13 00:44:31;;;;;;;18.73;13.00;;;;;;;6.65;100.00;100626.81;5050764;28;20040;-63
2022/04/13 00:47:01;;;;;;;16.67;12.13;;;;;;;5.85;100.00;100582.25;5050657;28;20111;-63
2022/04/13 00:49:27;;;;;;;13.68;10.48;;;;;;;6.38;100.00;100582.22;5050647;28;20037;-63
2022/04/13 00:51:52;;;;;;;9.43;7.85;;;;;;;6.22;100.00;100626.00;5050637;28;20025;-63
2022/04/13 00:54:19;;;;;;;13.15;9.52;;;;;;;6.52;100.00;100588.09;5050349;28;20029;-63
2022/04/13 00:56:48;;;;;;;11.10;9.10;;;;;;;6.31;100.00;100572.13;5050240;28;20037;-63
2022/04/13 00:59:14;;;;;;;10.13;8.40;;;;;;;6.13;100.00;100570.47;5050931;28;20033;-63
2022/04/13 01:01:49;;;;;;;10.05;8.43;;;;;;;6.79;100.00;100608.22;5050278;28;20041;-63
2022/04/13 01:04:16;;;;;;;13.18;9.93;;;;;;;5.88;100.00;100583.94;5048684;28;20040;-62
2022/04/13 01:06:44;;;;;;;12.27;9.68;;;;;;;6.65;100.00;100609.13;5030047;28;20056;-63
2022/04/13 01:09:13;;;;;;;12.95;10.45;;;;;;;5.98;100.00;100558.69;5030192;28;20026;-63
2022/04/13 01:11:39;;;;;;;14.02;9.90;;;;;;;6.27;100.00;100616.75;5030579;28;20025;-62
2022/04/13 01:14:05;;;;;;;13.00;10.80;;;;;;;6.01;100.00;100609.19;5030369;28;20565;-62
2022/04/13 01:16:32;;;;;;;18.60;12.63;;;;;;;6.09;100.00;100614.22;5030016;28;20037;-63
2022/04/13 01:18:57;;;;;;;16.20;11.35;;;;;;;6.02;100.00;100552.00;5012732;28;20034;-63
2022/04/13 01:21:45;;;;;;;16.50;11.07;;;;;;;6.69;100.00;100598.19;5030615;28;20025;-62
2022/04/13 01:24:11;;;;;;;14.52;11.40;;;;;;;6.34;100.00;100603.25;5037780;28;20403;-62
2022/04/13 01:26:37;;;;;;;21.30;13.73;;;;;;;5.85;100.00;100546.09;5049711;28;20037;-62
2022/04/13 01:29:04;;;;;;;13.00;10.05;;;;;;;6.21;100.00;100609.19;5036641;28;20076;-62
2022/04/13 01:31:30;;;;;;;17.15;12.20;;;;;;;6.07;100.00;100551.13;5044969;28;20063;-62
2022/04/13 01:33:57;;;;;;;23.13;15.07;;;;;;;5.86;100.00;100601.56;5040323;28;20057;-62
2022/04/13 01:36:23;;;;;;;16.65;11.00;;;;;;;6.53;100.00;100601.56;5022216;28;20094;-63
2022/04/13 01:38:48;;;;;;;15.25;10.38;;;;;;;5.79;100.00;100556.97;5049563;28;20033;-62
2022/04/13 01:41:14;;;;;;;16.52;10.68;;;;;;;5.86;100.00;100570.50;5050051;28;20514;-62
2022/04/13 01:43:40;;;;;;;16.05;12.00;;;;;;;6.49;100.00;100608.31;5049949;28;20036;-62
2022/04/13 01:46:06;;;;;;;17.00;11.68;;;;;;;5.99;100.00;100540.22;5050174;28;20032;-63
2022/04/13 01:48:31;;;;;;;13.88;10.25;;;;;;;5.51;100.00;100603.16;5049667;28;20025;-62
2022/04/13 01:50:58;;;;;;;12.77;9.52;;;;;;;5.85;100.00;100604.97;5035808;28;20036;-62
2022/04/13 01:53:24;;;;;;;10.77;9.27;;;;;;;5.58;100.00;100609.94;5053522;28;20394;-63
2022/04/13 01:55:50;;;;;;;9.60;7.95;;;;;;;5.24;100.00;100508.19;5053408;28;20039;-63
2022/04/13 01:58:16;;;;;;;11.05;8.20;;;;;;;5.53;100.00;100548.53;5053277;28;20036;-63
2022/04/13 02:00:41;;;;;;;10.55;8.20;;;;;;;5.32;100.00;100561.13;5035269;28;20143;-63
2022/04/13 02:03:07;;;;;;;8.57;7.38;;;;;;;5.47;100.00;100547.72;5053627;28;20071;-62
2022/04/13 02:05:32;;;;;;;9.15;8.07;;;;;;;5.97;100.00;100563.75;5035082;28;20407;-62
2022/04/13 02:07:58;;;;;;;9.45;7.50;;;;;;;5.69;100.00;100555.28;5053846;28;20029;-62
2022/04/13 02:10:23;;;;;;;9.88;8.05;;;;;;;5.76;100.00;100616.69;5053287;28;20021;-62
2022/04/13 02:12:49;;;;;;;11.55;7.85;;;;;;;5.20;100.00;100609.81;5053303;28;20051;-62
2022/04/13 02:15:15;;;;;;;11.20;8.45;;;;;;;5.50;100.00;100615.78;5053445;28;20480;-62
2022/04/13 02:17:40;;;;;;;8.57;7.47;;;;;;;5.44;100.00;100619.13;5052860;28;20039;-62
2022/04/13 02:20:06;;;;;;;8.32;6.60;;;;;;;5.32;100.00;100603.97;5035195;28;20029;-62
2022/04/13 02:22:32;;;;;;;11.40;8.07;;;;;;;4.74;100.00;100574.31;5053423;28;20028;-62
2022/04/13 02:25:05;;;;;;;9.32;7.65;;;;;;;4.23;100.00;100559.75;5053390;28;20025;-62
2022/04/13 02:27:30;;;;;;;9.27;7.15;;;;;;;4.96;100.00;100598.78;5053240;28;20486;-62
2022/04/13 02:29:56;;;;;;;9.13;7.50;;;;;;;5.39;100.00;100612.41;5052856;28;20037;-62
2022/04/13 02:32:21;;;;;;;8.57;7.13;;;;;;;4.95;100.00;100575.25;5053009;28;20021;-62
2022/04/13 02:34:48;;;;;;;8.20;7.13;;;;;;;5.34;100.00;100594.72;5052499;28;20029;-62
2022/04/13 02:37:15;;;;;;;8.23;7.25;;;;;;;4.78;100.00;100606.25;5052954;28;20106;-62
2022/04/13 02:39:40;;;;;;;9.02;7.80;;;;;;;4.42;100.00;100554.00;5053086;28;20090;-62
2022/04/13 02:42:06;;;;;;;10.07;8.00;;;;;;;5.15;100.00;100610.63;5053397;28;20025;-62
2022/04/13 02:44:31;;;;;;;10.65;8.73;;;;;;;4.95;100.00;100597.94;5052802;28;20079;-62
2022/04/13 02:46:57;;;;;;;9.90;8.63;;;;;;;5.28;100.00;100604.78;5052486;28;20471;-62
2022/04/13 02:49:22;;;;;;;10.02;8.93;;;;;;;5.55;100.00;100569.56;5052746;28;20459;-62
2022/04/13 02:51:47;;;;;;;12.65;9.07;;;;;;;4.84;100.00;100546.69;5052933;28;20040;-62
2022/04/13 02:54:13;;;;;;;12.00;9.70;;;;;;;4.77;100.00;100547.50;5052656;28;20036;-62
2022/04/13 02:56:38;;;;;;;10.70;9.25;;;;;;;5.40;100.00;100589.72;5052544;28;20033;-63
2022/04/13 02:59:04;;;;;;;10.30;9.00;;;;;;;5.13;100.00;100547.63;5052150;28;20110;-62
2022/04/13 03:01:29;;;;;;;11.48;8.70;;;;;;;5.11;100.00;100581.22;5052196;28;20028;-62
2022/04/13 03:03:55;;;;;;;9.90;8.68;;;;;;;5.76;100.00;100597.34;5052029;28;20045;-62
2022/04/13 03:06:21;;;;;;;11.23;8.75;;;;;;;5.61;100.00;100583.84;5052330;28;20095;-63
2022/04/13 03:08:47;;;;;;;9.82;8.50;;;;;;;5.42;100.00;100592.22;5052285;28;20029;-64
2022/04/13 03:11:13;;;;;;;10.43;8.55;;;;;;;5.62;100.00;100593.97;5034543;28;20024;-63
2022/04/13 03:13:38;;;;;;;12.85;9.40;;;;;;;5.73;100.00;100586.41;5034269;28;20124;-63
2022/04/13 03:16:04;;;;;;;10.48;9.13;;;;;;;5.91;100.00;100563.75;5051668;28;20028;-63
2022/04/13 03:18:30;;;;;;;12.13;10.85;;;;;;;6.28;100.00;100582.25;5051393;28;20033;-63
2022/04/13 03:20:56;;;;;;;11.88;9.73;;;;;;;5.72;100.00;100585.59;5034439;28;20033;-63
2022/04/13 03:23:21;;;;;;;12.90;8.85;;;;;;;5.38;100.00;100552.72;5034114;28;20029;-63
2022/04/13 03:25:48;;;;;;;11.07;8.70;;;;;;;5.61;100.00;100592.28;5052183;28;20049;-63
2022/04/13 03:28:14;;;;;;;10.85;8.90;;;;;;;5.52;100.00;100609.06;5034077;28;20392;-65
2022/04/13 03:30:39;;;;;;;11.10;8.55;;;;;;;5.78;100.00;100617.53;5032691;28;20106;-63
2022/04/13 03:33:05;;;;;;;14.05;9.68;;;;;;;5.94;100.00;100604.13;5033109;28;20025;-67
2022/04/13 03:35:30;;;;;;;16.17;11.85;;;;;;;5.74;100.00;100606.59;5051478;28;20527;-62
2022/04/13 03:37:55;;;;;;;19.27;13.85;;;;;;;5.42;100.00;100610.72;5051293;28;20124;-63
2022/04/13 03:40:23;;;;;;;20.55;13.77;;;;;;;5.71;100.00;100595.66;5051498;28;20025;-63
2022/04/13 03:42:48;;;;;;;16.35;12.35;;;;;;;5.63;100.00;100620.00;5033793;28;20025;-63
2022/04/13 03:45:14;;;;;;;18.58;12.20;;;;;;;5.74;100.00;100628.44;5051612;28;20486;-62
2022/04/13 03:47:40;;;;;;;18.38;13.13;;;;;;;5.53;100.00;100610.72;5051010;28;20148;-62
2022/04/13 03:50:07;;;;;;;19.17;13.68;;;;;;;5.73;100.00;100569.59;5051334;28;20415;-64
2022/04/13 03:52:34;;;;;;;14.73;12.45;;;;;;;5.45;100.00;100560.28;5051580;28;20029;-63
2022/04/13 03:55:01;;;;;;;13.93;11.52;;;;;;;6.22;100.00;100603.28;5051426;28;20564;-62
2022/04/13 03:57:26;;;;;;;16.60;12.35;;;;;;;5.74;100.00;100618.38;5051168;28;20033;-62
2022/04/13 03:59:52;;;;;;;19.80;14.18;;;;;;;6.22;100.00;100560.34;5050734;28;20033;-63
2022/04/13 04:02:17;;;;;;;20.35;13.30;;;;;;;6.35;100.00;100607.50;5032858;28;20352;-63
2022/04/13 04:04:43;;;;;;;20.63;12.32;;;;;;;6.44;100.00;100612.50;5051221;28;20107;-63
2022/04/13 04:07:08;;;;;;;19.23;11.88;;;;;;;6.14;100.00;100564.56;5032650;28;20028;-63
2022/04/13 04:09:34;;;;;;;38.10;26.00;;;;;;;6.12;100.00;100554.47;5051115;28;20510;-63
2022/04/13 04:12:00;;;;;;;23.38;14.95;;;;;;;6.32;100.00;100568.78;5050225;28;20037;-63
2022/04/13 04:14:25;;;;;;;61.15;38.97;;;;;;;6.41;100.00;100566.22;5051060;28;20035;-62
2022/04/13 04:16:51;;;;;;;38.85;25.55;;;;;;;6.71;100.00;100627.66;5050734;28;20043;-63
2022/04/13 04:19:16;;;;;;;37.47;26.63;;;;;;;6.49;100.00;100585.59;5051429;28;20040;-63
2022/04/13 04:21:42;;;;;;;29.58;19.25;;;;;;;6.75;100.00;100628.47;5039008;28;20471;-64
2022/04/13 04:24:08;;;;;;;32.70;21.30;;;;;;;6.45;100.00;100557.81;5029349;28;20031;-64
2022/04/13 04:26:33;;;;;;;32.35;21.27;;;;;;;6.52;100.00;100589.78;5029412;28;20025;-63
2022/04/13 04:28:58;;;;;;;45.65;33.63;;;;;;;6.77;100.00;100616.69;5030468;28;20056;-64
2022/04/13 04:34:08;;;;;;;76.80;48.65;;;;;;;6.67;100.00;100593.13;5030908;28;20506;-63
2022/04/13 04:36:34;;;;;;;49.30;34.03;;;;;;;6.28;100.00;100567.09;5030861;28;20033;-63
2022/04/13 04:38:59;;;;;;;66.10;43.80;;;;;;;7.00;100.00;100625.88;5011664;28;20131;-63
2022/04/13 04:41:24;;;;;;;78.07;52.78;;;;;;;7.06;100.00;100637.66;5029512;28;20428;-63
2022/04/13 04:43:50;;;;;;;37.42;27.17;;;;;;;6.46;100.00;100541.81;5029593;28;20092;-63
2022/04/13 04:46:15;;;;;;;26.58;19.75;;;;;;;7.18;100.00;100634.22;5029098;28;20033;-63
2022/04/13 04:48:42;;;;;;;25.58;18.58;;;;;;;6.88;100.00;100635.19;5029188;28;20025;-64
2022/04/13 04:51:11;;;;;;;29.58;20.55;;;;;;;7.08;100.00;100582.03;5029488;28;20026;-63
2022/04/13 04:53:37;;;;;;;31.42;21.50;;;;;;;6.57;100.00;100575.47;5030521;28;20537;-63
2022/04/13 04:56:02;;;;;;;24.73;18.80;;;;;;;7.11;100.00;100640.19;5030552;28;20036;-63
2022/04/13 04:58:27;;;;;;;24.50;18.25;;;;;;;6.96;100.00;100657.06;5030490;28;20029;-63
2022/04/13 05:00:54;;;;;;;18.55;13.63;;;;;;;6.89;100.00;100597.25;5030497;28;20041;-63
2022/04/13 05:03:19;;;;;;;24.17;14.43;;;;;;;7.32;100.00;100652.72;5030416;28;20571;-63
2022/04/13 05:05:45;;;;;;;21.40;13.40;;;;;;;6.79;100.00;100640.25;5030588;28;20124;-63
2022/04/13 05:08:10;;;;;;;19.88;13.23;;;;;;;7.03;100.00;100603.09;5030781;28;20029;-63
2022/04/13 05:10:37;;;;;;;19.70;13.13;;;;;;;7.46;100.00;100661.94;5012726;28;20546;-63
2022/04/13 05:13:03;;;;;;;22.90;13.48;;;;;;;7.68;100.00;100618.00;5012649;28;20051;-63
2022/04/13 05:15:28;;;;;;;19.92;14.77;;;;;;;8.25;100.00;100659.81;5012410;28;20512;-63
2022/04/13 05:17:54;;;;;;;40.50;25.83;;;;;;;8.02;100.00;100605.94;5030302;28;20427;-63
2022/04/13 05:20:20;;;;;;;54.65;33.38;;;;;;;8.22;100.00;100642.06;5030446;28;20030;-63
2022/04/13 05:22:45;;;;;;;29.52;18.33;;;;;;;7.72;100.00;100611.22;5012642;28;20033;-63
2022/04/13 05:25:14;;;;;;;25.48;16.13;;;;;;;7.33;100.00;100629.13;5033233;28;20022;-63
2022/04/13 05:27:39;;;;;;;40.40;25.27;;;;;;;8.58;100.00;100613.06;5034482;28;20033;-63
2022/04/13 05:30:06;;;;;;;25.98;16.13;;;;;;;8.94;100.00;100665.09;5016352;28;20040;-63
2022/04/13 05:32:32;;;;;;;26.90;15.40;;;;;;;9.24;100.00;100663.06;5034192;28;20036;-64
2022/04/13 05:35:01;;;;;;;28.10;16.33;;;;;;;9.47;100.00;100650.09;5034344;28;20029;-63
2022/04/13 05:37:28;;;;;;;26.65;15.45;;;;;;;8.67;100.00;100568.22;5034085;28;20038;-64
2022/04/13 05:39:53;;;;;;;34.65;18.45;;;;;;;8.57;100.00;100619.00;5034203;28;20112;-63
2022/04/13 05:42:23;;;;;;;34.53;18.20;;;;;;;8.90;100.00;100668.50;5016188;28;20036;-63
2022/04/13 05:44:49;;;;;;;33.92;19.15;;;;;;;9.07;100.00;100676.81;5034378;28;20553;-63
2022/04/13 05:47:14;;;;;;;26.77;17.25;;;;;;;9.03;100.00;100587.22;5034231;28;20033;-65
2022/04/13 05:49:39;;;;;;;24.75;12.55;;;;;;;9.17;100.00;100658.09;5034196;28;20030;-63
2022/04/13 05:52:05;;;;;;;32.13;12.63;;;;;;;8.94;100.00;100645.66;5033719;28;20483;-63
2022/04/13 05:54:30;;;;;;;19.98;12.20;;;;;;;8.29;100.00;100623.47;5034097;28;20061;-63
2022/04/13 05:56:57;;;;;;;25.17;12.30;;;;;;;8.81;100.00;100580.72;5033590;28;20180;-66
2022/04/13 05:59:22;;;;;;;19.83;12.55;;;;;;;9.50;100.00;100639.91;5033912;28;20025;-63
2022/04/13 06:01:48;;;;;;;21.27;13.40;;;;;;;10.04;100.00;100621.34;5016117;28;20031;-64
2022/04/13 06:04:13;;;;;;;17.92;13.20;;;;;;;10.39;100.00;100676.72;5016129;28;20471;-63
2022/04/13 06:06:38;;;;;;;12.80;11.25;;;;;;;10.89;100.00;100665.69;5033415;28;20033;-63
2022/04/13 06:09:05;;;;;;;21.48;16.20;;;;;;;9.67;100.00;100672.66;5033899;28;20032;-63
2022/04/13 06:11:30;;;;;;;24.40;17.58;;;;;;;9.92;100.00;100663.88;5033338;28;20407;-63
2022/04/13 06:13:55;;;;;;;33.20;23.25;;;;;;;10.81;100.00;100602.25;5033274;28;20025;-63
2022/04/13 06:16:21;;;;;;;22.05;15.52;;;;;;;10.96;100.00;100631.63;5015772;28;20423;-64
2022/04/13 06:18:46;;;;;;;13.90;11.63;;;;;;;10.27;100.00;100629.50;5033585;28;20032;-64
2022/04/13 06:21:12;;;;;;;16.92;11.85;;;;;;;10.50;100.00;100624.00;5033365;28;20029;-64
2022/04/13 06:23:37;;;;;;;14.88;12.63;;;;;;;10.89;100.00;100680.97;5033535;28;20036;-63
2022/04/13 06:26:02;;;;;;;13.07;9.73;;;;;;;10.33;100.00;100595.50;5015482;28;20129;-63
2022/04/13 06:28:28;;;;;;;17.42;11.43;;;;;;;10.06;100.00;100680.56;5033097;28;20030;-63
2022/04/13 06:30:53;;;;;;;15.75;11.57;;;;;;;11.30;100.00;100686.97;5015536;28;20030;-63
2022/04/13 06:33:19;;;;;;;14.48;10.32;;;;;;;12.16;100.00;100677.47;5033445;28;20037;-64
2022/04/13 06:35:45;;;;;;;12.50;10.80;;;;;;;11.47;97.79;100642.50;5032561;28;20022;-63
2022/04/13 06:38:10;;;;;;;17.95;11.85;;;;;;;11.66;96.57;100649.75;5033143;28;20033;-63
2022/04/13 06:40:36;;;;;;;13.90;11.02;;;;;;;12.79;93.97;100690.38;5032950;28;20029;-63
2022/04/13 06:43:01;;;;;;;16.23;10.65;;;;;;;11.81;91.14;100699.50;5032634;28;20039;-63
2022/04/13 06:45:27;;;;;;;11.13;7.68;;;;;;;10.45;95.04;100644.44;5033301;28;20029;-63
2022/04/13 06:47:52;;;;;;;9.55;7.30;;;;;;;12.83;94.59;100688.59;5033242;28;20396;-63
2022/04/13 06:50:18;;;;;;;11.93;6.25;;;;;;;11.48;90.39;100598.34;5033073;28;20348;-63
2022/04/13 06:52:44;;;;;;;9.40;6.60;;;;;;;11.85;93.12;100683.28;5015173;28;20437;-64
2022/04/13 06:55:10;;;;;;;6.85;6.00;;;;;;;12.56;89.48;100684.16;5032691;28;20036;-64
2022/04/13 06:57:37;;;;;;;10.13;6.22;;;;;;;12.33;90.92;100666.03;5032210;28;20045;-63
2022/04/13 07:00:05;;;;;;;7.65;5.93;;;;;;;13.68;87.21;100653.88;5032993;28;20652;-63
2022/04/13 07:02:30;;;;;;;9.18;5.63;;;;;;;13.27;85.15;100680.59;5032888;28;20049;-64
2022/04/13 07:04:55;;;;;;;9.88;5.00;;;;;;;12.72;78.49;100626.78;5032503;28;20508;-64
2022/04/13 07:07:21;;;;;;;7.47;5.00;;;;;;;12.62;79.59;100643.19;5032538;28;20112;-64
2022/04/13 07:09:46;;;;;;;5.88;4.85;;;;;;;11.67;84.36;100692.16;5032830;28;20094;-64
2022/04/13 07:12:12;;;;;;;6.53;4.55;;;;;;;13.33;78.34;100688.09;5032060;28;20131;-64
2022/04/13 07:14:41;;;;;;;7.70;4.35;;;;;;;14.17;74.30;100643.81;5014681;28;20112;-64
2022/04/13 07:17:08;;;;;;;8.68;4.15;;;;;;;13.52;72.04;100645.00;5032306;28;20087;-64
2022/04/13 07:19:33;;;;;;;13.52;4.45;;;;;;;13.95;70.42;100630.03;5032256;28;20041;-64
2022/04/13 07:21:59;;;;;;;5.50;3.72;;;;;;;14.76;69.61;100680.25;5032234;28;20029;-64
2022/04/13 07:24:26;;;;;;;4.93;3.72;;;;;;;13.14;69.86;100693.75;5032202;28;20029;-64
2022/04/13 07:26:51;;;;;;;5.75;3.67;;;;;;;13.56;68.79;100700.22;5031821;28;20087;-64
2022/04/13 07:29:17;;;;;;;5.20;3.40;;;;;;;15.17;67.34;100686.53;5032475;28;20075;-64
2022/04/13 07:31:42;;;;;;;5.00;3.55;;;;;;;15.30;65.42;100683.47;5031992;28;20025;-63
2022/04/13 07:34:08;;;;;;;6.10;3.47;;;;;;;15.09;65.61;100688.53;5031855;28;20040;-63
2022/04/13 07:36:34;;;;;;;5.63;3.25;;;;;;;15.62;65.56;100636.19;5014423;28;20033;-64
2022/04/13 07:38:59;;;;;;;4.90;3.13;;;;;;;15.04;62.64;100678.44;5031937;28;20021;-63
2022/04/13 07:41:25;;;;;;;6.38;3.72;;;;;;;14.78;64.83;100640.94;5031536;28;20064;-64
2022/04/13 07:43:50;;;;;;;5.07;3.72;;;;;;;14.05;66.44;100641.66;5014424;28;20030;-64
2022/04/13 07:46:16;;;;;;;6.35;3.90;;;;;;;14.99;66.19;100664.97;5031398;28;20034;-64
2022/04/13 07:48:41;;;;;;;11.25;6.95;;;;;;;14.09;67.40;100684.13;5031509;28;20495;-64
2022/04/13 07:51:06;;;;;;;6.65;4.22;;;;;;;14.98;67.69;100616.34;5031715;28;20499;-64
2022/04/13 07:53:32;;;;;;;9.85;4.88;;;;;;;15.20;64.53;100636.03;5014139;28;20036;-64
2022/04/13 07:55:57;;;;;;;5.38;3.60;;;;;;;15.81;63.70;100672.19;5031542;28;20514;-64
2022/04/13 07:58:23;;;;;;;4.63;3.50;;;;;;;15.41;64.26;100619.03;5013977;28;20480;-66
2022/04/13 08:00:48;;;;;;;7.63;3.78;;;;;;;15.37;62.98;100622.59;5013884;28;20361;-65
2022/04/13 08:03:15;;;;;;;4.10;3.25;;;;;;;15.52;63.42;100614.34;5031161;28;20041;-64
2022/04/13 08:05:40;;;;;;;3.60;2.60;;;;;;;16.74;61.63;100611.13;5031499;28;20068;-65
2022/04/13 08:08:06;;;;;;;4.53;2.92;;;;;;;15.87;61.39;100661.72;5013728;28;20112;-64
2022/04/13 08:10:32;;;;;;;8.32;3.92;;;;;;;16.47;58.96;100634.44;5013294;28;20377;-65
2022/04/13 08:12:58;;;;;;;6.60;4.68;;;;;;;16.00;58.90;100650.94;5013731;28;20037;-64
2022/04/13 08:15:24;;;;;;;7.65;3.67;;;;;;;16.36;58.58;100587.03;5013592;28;20037;-64
2022/04/13 08:17:50;;;;;;;4.70;3.30;;;;;;;16.69;57.55;100667.78;5031097;28;20618;-64
2022/04/13 08:20:15;;;;;;;5.82;3.33;;;;;;;16.79;57.33;100599.72;5031306;28;20037;-64
2022/04/13 08:22:42;;;;;;;3.90;2.92;;;;;;;16.38;56.93;100603.19;5031232;28;20033;-64
2022/04/13 08:25:08;;;;;;;7.22;2.95;;;;;;;17.00;57.79;100675.03;5030856;28;20025;-64
2022/04/13 08:27:33;;;;;;;4.18;3.13;;;;;;;15.05;58.65;100675.00;5031258;28;20033;-64
2022/04/13 08:29:59;;;;;;;4.25;2.67;;;;;;;16.10;58.79;100652.22;5013398;28;20052;-64
2022/04/13 08:32:24;;;;;;;3.75;2.50;;;;;;;17.07;58.37;100654.13;5031135;28;20025;-64
2022/04/13 08:34:53;;;;;;;6.65;3.30;;;;;;;17.44;56.90;100637.06;5013230;28;20029;-64
2022/04/13 08:37:20;;;;;;;6.70;3.38;;;;;;;18.02;57.04;100649.78;5030746;28;20095;-64
2022/04/13 08:39:45;;;;;;;6.55;2.95;;;;;;;17.35;56.46;100626.31;5013126;28;20132;-63
2022/04/13 08:42:26;;;;;;;6.63;3.10;;;;;;;17.75;55.15;100601.34;5031066;28;20132;-64
2022/04/13 08:44:53;;;;;;;5.22;2.90;;;;;;;16.84;57.64;100646.59;5013153;28;20025;-64
2022/04/13 08:47:21;;;;;;;4.07;2.70;;;;;;;16.16;58.82;100594.72;5031014;28;20029;-64
2022/04/13 08:49:51;;;;;;;5.45;2.83;;;;;;;17.15;54.76;100635.81;5030682;28;20800;-63
2022/04/13 08:52:23;;;;;;;6.07;2.70;;;;;;;18.14;52.98;100535.09;5030540;28;20029;-64
2022/04/13 08:55:02;;;;;;;4.05;2.88;;;;;;;16.82;54.39;100621.88;5013102;28;20040;-64
2022/04/13 08:57:29;;;;;;;3.97;2.78;;;;;;;16.66;52.82;100638.84;5030784;28;20037;-65
2022/04/13 09:00:13;;;;;;;6.10;3.33;;;;;;;16.83;52.52;100620.97;5030792;28;20595;-64
2022/04/13 09:02:48;;;;;;;4.68;2.88;;;;;;;17.21;52.37;100638.13;5030135;28;20067;-64
2022/04/13 09:05:24;;;;;;;3.47;2.90;;;;;;;16.85;52.61;100609.75;5013011;28;20049;-64
2022/04/13 09:08:06;;;;;;;4.22;3.28;;;;;;;17.46;52.84;100581.28;5012884;28;20030;-64
2022/04/13 09:10:32;;;;;;;5.78;2.95;;;;;;;17.51;53.47;100625.66;5030292;28;20099;-64
2022/04/13 09:12:58;;;;;;;5.03;3.30;;;;;;;16.91;51.42;100624.06;5030276;28;20029;-63
2022/04/13 09:15:24;;;;;;;6.22;3.20;;;;;;;17.71;51.60;100607.53;5030777;28;20117;-63
2022/04/13 09:17:50;;;;;;;7.30;3.20;;;;;;;16.69;50.86;100536.84;5030364;28;20118;-64
2022/04/13 09:20:16;;;;;;;6.03;3.30;;;;;;;18.48;51.10;100576.28;5030409;28;20476;-66
2022/04/13 09:22:42;;;;;;;5.13;2.92;;;;;;;18.15;50.94;100516.16;5030393;28;20026;-64
2022/04/13 09:25:09;;;;;;;4.65;3.15;;;;;;;16.25;52.74;100582.34;5012421;28;20029;-64
2022/04/13 09:27:36;;;;;;;4.78;3.40;;;;;;;17.52;51.80;100583.59;5012614;28;20030;-64
2022/04/13 09:30:03;;;;;;;4.22;2.95;;;;;;;17.88;50.66;100551.00;5030494;28;20033;-64
2022/04/13 09:32:31;;;;;;;5.70;3.22;;;;;;;18.20;45.53;100571.66;5030327;28;20037;-64
2022/04/13 09:34:56;;;;;;;3.70;2.78;;;;;;;18.02;48.25;100585.44;5030678;28;20033;-64
2022/04/13 09:37:22;;;;;;;4.95;3.00;;;;;;;17.07;49.18;100524.84;5030119;28;20034;-64
2022/04/13 09:39:48;;;;;;;4.15;3.20;;;;;;;17.78;48.49;100480.31;5030236;28;20044;-64
2022/04/13 09:42:13;;;;;;;3.88;2.60;;;;;;;18.55;47.36;100561.34;5029963;28;20037;-64
2022/04/13 09:44:42;;;;;;;5.65;2.33;;;;;;;18.83;46.94;100559.84;5030272;28;20033;-64
2022/04/13 09:47:14;;;;;;;3.67;2.67;;;;;;;17.95;47.50;100506.88;5029964;28;20496;-65
2022/04/13 09:49:52;;;;;;;3.22;2.33;;;;;;;19.14;46.01;100556.47;5030431;28;20034;-65
2022/04/13 09:52:20;;;;;;;4.93;2.45;;;;;;;16.91;46.91;100517.00;5029949;28;20448;-65
2022/04/13 09:54:46;;;;;;;3.30;2.30;;;;;;;17.42;46.99;100521.47;5029862;28;20029;-65
2022/04/13 09:57:22;;;;;;;4.78;2.30;;;;;;;18.09;46.97;100543.03;5030210;28;20029;-65
2022/04/13 09:59:57;;;;;;;3.10;2.22;;;;;;;18.17;46.19;100488.59;5012424;28;20025;-65
2022/04/13 10:02:44;;;;;;;3.33;2.30;;;;;;;19.76;45.07;100476.47;5029840;28;20057;-66
2022/04/13 10:05:21;;;;;;;3.78;2.50;;;;;;;17.45;46.66;100544.44;5012184;28;20432;-65
2022/04/13 10:08:04;;;;;;;3.15;2.50;;;;;;;17.22;45.74;100489.00;5012250;28;20025;-65
2022/04/13 10:10:30;;;;;;;3.42;2.10;;;;;;;17.47;46.36;100493.78;5031600;28;20025;-65
2022/04/13 10:12:56;;;;;;;4.05;2.85;;;;;;;18.49;46.42;100554.78;5015727;28;20045;-65
2022/04/13 10:15:21;;;;;;;3.72;2.30;;;;;;;17.29;46.92;100541.75;5033549;28;20079;-65
2022/04/13 10:17:47;;;;;;;5.28;2.40;;;;;;;19.57;45.58;100480.97;5033031;28;20041;-65
2022/04/13 10:20:12;;;;;;;6.25;2.70;;;;;;;18.45;46.81;100527.50;5033262;28;20484;-65
2022/04/13 10:22:57;;;;;;;7.28;2.90;;;;;;;19.05;46.27;100529.41;5033371;28;20079;-65
2022/04/13 10:25:26;;;;;;;5.57;3.10;;;;;;;20.08;44.20;100468.56;5015476;28;20029;-65
2022/04/13 10:27:53;;;;;;;4.88;2.58;;;;;;;19.37;44.46;100489.00;5033365;28;20029;-66
2022/04/13 10:30:34;;;;;;;3.75;2.47;;;;;;;19.22;44.30;100463.22;5033106;28;20176;-65
2022/04/13 10:33:01;;;;;;;3.55;2.30;;;;;;;20.00;44.05;100473.34;5033510;28;20091;-65
2022/04/13 10:35:28;;;;;;;4.13;2.30;;;;;;;21.21;43.44;100505.53;5033294;28;20468;-65
2022/04/13 10:37:55;;;;;;;3.95;2.70;;;;;;;20.50;43.63;100481.53;5032974;28;20041;-65
2022/04/13 10:40:23;;;;;;;5.15;2.38;;;;;;;20.05;45.05;100517.78;5033128;28;20034;-65
2022/04/13 10:42:51;;;;;;;3.42;2.42;;;;;;;20.58;44.51;100515.50;5032930;28;20574;-65
2022/04/13 10:45:17;;;;;;;3.08;2.30;;;;;;;18.19;45.69;100495.34;5032719;28;20037;-65
2022/04/13 10:48:00;;;;;;;4.13;2.50;;;;;;;20.08;44.80;100525.38;5033101;28;20026;-66
2022/04/13 10:50:36;;;;;;;3.85;1.88;;;;;;;18.29;45.17;100518.03;5032793;28;20033;-66
2022/04/13 10:53:22;;;;;;;4.95;2.40;;;;;;;17.94;47.23;100524.97;5032709;28;20017;-64
2022/04/13 10:55:57;;;;;;;4.95;2.75;;;;;;;18.77;47.84;100526.69;5032794;28;20415;-63
2022/04/13 10:58:54;;;;;;;5.18;3.72;;;;;;;18.11;46.37;100525.78;5032696;28;20030;-65
2022/04/13 11:01:20;;;;;;;5.70;2.95;;;;;;;17.62;46.77;100469.94;5032791;28;20033;-66
2022/04/13 11:03:47;;;;;;;5.78;2.40;;;;;;;19.31;45.34;100517.72;5032860;28;20491;-66
2022/04/13 11:06:13;;;;;;;6.55;3.00;;;;;;;19.42;45.06;100481.03;5032693;28;20030;-66
2022/04/13 11:08:54;;;;;;;5.88;5.25;;;;;;;17.54;45.71;100518.34;5032779;28;20029;-63
2022/04/13 11:11:21;;;;;;;3.60;2.28;;;;;;;20.46;42.78;100465.38;5032673;28;20037;-64
2022/04/13 11:13:48;;;;;;;5.30;2.40;;;;;;;20.44;42.82;100493.06;5032462;28;20052;-64
2022/04/13 11:16:19;;;;;;;4.38;2.70;;;;;;;19.89;43.56;100502.38;5032439;28;20033;-64
2022/04/13 11:19:06;;;;;;;4.13;2.25;;;;;;;21.03;43.11;100488.59;5032438;28;20488;-64
2022/04/13 11:21:33;;;;;;;7.03;2.60;;;;;;;19.91;43.26;100469.56;5032123;28;20464;-64